createdAt,value
2018-12-22T00:00:38.386Z,999.50
2018-12-22T00:05:34.409Z,999.63
2018-12-22T00:10:29.926Z,999.59
2018-12-22T00:15:25.387Z,999.61
2018-12-22T00:20:21.395Z,999.67
2018-12-22T00:25:17.099Z,999.73
2018-12-22T00:30:13.001Z,999.84
2018-12-22T00:35:08.693Z,999.78
2018-12-22T00:40:05.566Z,999.78
2018-12-22T00:45:00.906Z,999.73
2018-12-22T00:49:56.606Z,999.68
2018-12-22T00:54:52.348Z,999.73
2018-12-22T00:59:48.855Z,999.72
2018-12-22T01:04:45.278Z,999.74
2018-12-22T01:09:41.112Z,999.74
2018-12-22T01:14:37.925Z,999.84
2018-12-22T01:19:33.331Z,999.84
2018-12-22T01:24:29.064Z,999.79
2018-12-22T01:29:24.670Z,999.79
2018-12-22T01:34:20.546Z,999.82
2018-12-22T01:39:16.635Z,999.83
2018-12-22T01:44:13.241Z,999.85
2018-12-22T01:49:08.574Z,999.87
2018-12-22T01:54:05.605Z,999.81
2018-12-22T01:59:01.142Z,999.81
2018-12-22T02:03:57.898Z,999.83
2018-12-22T02:08:53.590Z,999.78
2018-12-22T02:13:49.304Z,999.72
2018-12-22T02:18:45.171Z,999.78
2018-12-22T02:23:40.987Z,999.80
2018-12-22T02:28:37.191Z,999.77
2018-12-22T02:33:32.966Z,999.69
2018-12-22T02:38:29.657Z,999.60
2018-12-22T02:43:25.468Z,999.50
2018-12-22T02:48:22.312Z,999.62
2018-12-22T02:53:17.703Z,999.47
2018-12-22T02:58:15.363Z,999.53
2018-12-22T03:03:10.709Z,999.46
2018-12-22T03:08:06.474Z,999.37
2018-12-22T03:13:02.573Z,999.31
2018-12-22T03:17:59.903Z,999.20
2018-12-22T03:22:55.507Z,999.03
2018-12-22T03:27:51.418Z,999.01
2018-12-22T03:32:48.416Z,998.89
2018-12-22T03:37:44.196Z,998.71
2018-12-22T03:42:40.958Z,998.77
2018-12-22T03:47:37.154Z,998.67
2018-12-22T03:52:32.691Z,998.67
2018-12-22T03:57:28.804Z,998.43
2018-12-22T04:02:24.718Z,998.54
2018-12-22T04:07:20.628Z,998.48
2018-12-22T04:12:17.235Z,998.49
2018-12-22T04:17:13.785Z,998.51
2018-12-22T04:22:09.693Z,998.75
2018-12-22T04:27:05.317Z,998.71
2018-12-22T04:37:00.897Z,998.66
2018-12-22T04:41:57.552Z,998.57
2018-12-22T04:46:53.008Z,998.59
2018-12-22T04:51:48.972Z,998.63
2018-12-22T04:56:44.715Z,998.50
2018-12-22T05:01:40.248Z,998.41
2018-12-22T05:06:37.409Z,998.32
2018-12-22T05:11:33.904Z,998.03
2018-12-22T05:16:29.369Z,998.09
2018-12-22T05:21:25.242Z,998.24
2018-12-22T05:26:22.078Z,998.18
2018-12-22T05:31:18.484Z,998.07
2018-12-22T05:36:13.572Z,998.11
2018-12-22T05:41:09.462Z,997.99
2018-12-22T05:46:06.283Z,997.90
2018-12-22T05:51:02.028Z,997.88
2018-12-22T05:55:58.457Z,997.98
2018-12-22T06:00:54.903Z,998.16
2018-12-22T06:05:51.038Z,998.00
2018-12-22T06:10:47.119Z,998.04
2018-12-22T06:15:42.873Z,997.99
2018-12-22T06:20:38.809Z,998.12
2018-12-22T06:25:34.228Z,998.31
2018-12-22T06:30:30.005Z,998.39
2018-12-22T06:35:25.918Z,998.47
2018-12-22T06:40:22.848Z,998.70
2018-12-22T06:45:18.485Z,998.78
2018-12-22T06:50:14.385Z,999.04
2018-12-22T06:55:10.248Z,999.20
2018-12-22T07:00:06.321Z,999.33
2018-12-22T07:05:03.282Z,999.44
2018-12-22T07:09:59.857Z,999.67
2018-12-22T07:14:54.974Z,999.68
2018-12-22T07:19:50.864Z,999.89
2018-12-22T07:24:47.741Z,1000.05
2018-12-22T07:29:43.319Z,1000.44
2018-12-22T07:34:39.134Z,1000.52
2018-12-22T07:39:34.897Z,1000.69
2018-12-22T07:44:30.733Z,1000.71
2018-12-22T07:49:26.458Z,1000.92
2018-12-22T07:54:22.246Z,1001.13
2018-12-22T07:59:17.957Z,1001.36
2018-12-22T08:04:13.344Z,1001.43
2018-12-22T08:09:09.392Z,1001.59
2018-12-22T08:14:05.136Z,1001.68
2018-12-22T08:19:01.013Z,1001.79
2018-12-22T08:23:56.771Z,1001.95
2018-12-22T08:28:52.580Z,1002.12
2018-12-22T08:33:49.285Z,1002.20
2018-12-22T08:38:44.720Z,1002.39
2018-12-22T08:43:40.572Z,1002.48
2018-12-22T08:48:36.447Z,1002.76
2018-12-22T08:53:31.943Z,1002.96
2018-12-22T08:58:27.767Z,1003.09
2018-12-22T09:03:23.425Z,1003.20
2018-12-22T09:08:20.801Z,1003.22
2018-12-22T09:13:20.942Z,1003.39
2018-12-22T09:18:15.260Z,1003.57
2018-12-22T09:23:12.145Z,1003.64
2018-12-22T09:28:07.574Z,1003.71
2018-12-22T09:33:04.239Z,1003.95
2018-12-22T09:37:59.703Z,1004.01
2018-12-22T09:42:56.322Z,1004.15
2018-12-22T09:47:52.841Z,1004.24
2018-12-22T09:52:48.129Z,1004.29
2018-12-22T09:57:44.698Z,1004.33
2018-12-22T10:02:40.204Z,1004.35
2018-12-22T10:07:35.941Z,1004.35
2018-12-22T10:12:31.625Z,1004.42
2018-12-22T10:17:28.427Z,1004.40
2018-12-22T10:22:24.974Z,1004.59
2018-12-22T10:27:22.475Z,1004.51
2018-12-22T10:32:18.706Z,1004.52
2018-12-22T10:37:14.760Z,1004.63
2018-12-22T10:42:11.276Z,1004.62
2018-12-22T10:47:09.181Z,1004.70
2018-12-22T10:52:05.639Z,1004.75
2018-12-22T10:57:04.110Z,1004.88
2018-12-22T11:01:59.327Z,1004.92
2018-12-22T11:06:55.752Z,1004.89
2018-12-22T11:11:51.543Z,1004.87
2018-12-22T11:16:48.456Z,1004.96
2018-12-22T11:21:44.978Z,1004.97
2018-12-22T11:26:41.483Z,1005.05
2018-12-22T11:31:37.006Z,1004.98
2018-12-22T11:36:33.714Z,1005.14
2018-12-22T11:41:29.664Z,1005.09
2018-12-22T11:46:25.649Z,1005.12
2018-12-22T11:51:21.162Z,1005.34
2018-12-22T11:56:16.953Z,1005.42
2018-12-22T12:01:12.951Z,1005.30
2018-12-22T12:06:09.784Z,1005.25
2018-12-22T12:11:06.310Z,1005.32
2018-12-22T12:16:01.697Z,1005.30
2018-12-22T12:20:57.675Z,1005.36
2018-12-22T12:25:54.048Z,1005.38
2018-12-22T12:30:51.210Z,1005.41
2018-12-22T12:35:46.775Z,1005.50
2018-12-22T12:40:42.504Z,1005.59
2018-12-22T12:45:39.299Z,1005.64
2018-12-22T12:50:34.758Z,1005.65
2018-12-22T12:55:30.438Z,1005.70
2018-12-22T13:00:27.478Z,1005.65
2018-12-22T13:05:23.073Z,1005.71
2018-12-22T13:10:19.883Z,1005.85
2018-12-22T13:15:16.341Z,1005.90
2018-12-22T13:20:13.042Z,1006.05
2018-12-22T13:25:09.586Z,1006.11
2018-12-22T13:30:05.809Z,1006.19
2018-12-22T13:35:01.880Z,1006.30
2018-12-22T13:39:57.903Z,1006.37
2018-12-22T13:44:54.533Z,1006.33
2018-12-22T13:49:50.264Z,1006.53
2018-12-22T13:54:45.798Z,1006.52
2018-12-22T13:59:41.584Z,1006.62
2018-12-22T14:04:37.897Z,1006.64
2018-12-22T14:09:33.710Z,1006.79
2018-12-22T14:14:30.672Z,1006.77
2018-12-22T14:19:26.531Z,1006.93
2018-12-22T14:24:23.403Z,1006.98
2018-12-22T14:29:18.607Z,1006.93
2018-12-22T14:34:15.001Z,1006.93
2018-12-22T14:39:11.089Z,1007.04
2018-12-22T14:44:07.061Z,1007.05
2018-12-22T14:49:02.950Z,1007.26
2018-12-22T14:53:58.953Z,1007.15
2018-12-22T14:58:55.604Z,1007.24
2018-12-22T15:03:51.292Z,1007.48
2018-12-22T15:08:48.084Z,1007.55
2018-12-22T15:13:44.086Z,1007.72
2018-12-22T15:18:39.863Z,1007.76
2018-12-22T15:23:36.435Z,1007.73
2018-12-22T15:28:31.880Z,1008.03
2018-12-22T15:33:27.622Z,1008.10
2018-12-22T15:38:23.388Z,1008.16
2018-12-22T15:43:19.279Z,1008.14
2018-12-22T15:48:14.988Z,1008.07
2018-12-22T15:53:10.858Z,1008.15
2018-12-22T15:58:06.689Z,1008.17
2018-12-22T16:03:03.953Z,1008.37
2018-12-22T16:07:59.212Z,1008.45
2018-12-22T16:12:55.030Z,1008.60
2018-12-22T16:17:50.682Z,1008.67
2018-12-22T16:22:46.889Z,1008.80
2018-12-22T16:27:43.805Z,1008.77
2018-12-22T16:32:41.436Z,1008.85
2018-12-22T16:37:36.575Z,1008.77
2018-12-22T16:42:33.345Z,1008.79
2018-12-22T16:47:28.993Z,1008.85
2018-12-22T16:52:25.734Z,1008.96
2018-12-22T16:57:21.965Z,1009.00
2018-12-22T17:02:17.688Z,1009.06
2018-12-22T17:07:13.366Z,1009.22
2018-12-22T17:12:09.190Z,1009.28
2018-12-22T17:17:05.471Z,1009.38
2018-12-22T17:22:00.977Z,1009.56
2018-12-22T17:26:58.706Z,1009.63
2018-12-22T17:31:53.929Z,1009.54
2018-12-22T17:36:49.610Z,1009.66
2018-12-22T17:41:45.459Z,1009.76
2018-12-22T17:46:41.251Z,1009.79
2018-12-22T17:51:37.021Z,1009.84
2018-12-22T17:56:33.510Z,1009.92
2018-12-22T18:01:29.593Z,1009.97
2018-12-22T18:06:25.121Z,1010.16
2018-12-22T18:11:21.955Z,1010.25
2018-12-22T18:16:17.482Z,1010.20
2018-12-22T18:21:13.866Z,1010.36
2018-12-22T18:26:09.317Z,1010.33
2018-12-22T18:31:05.335Z,1010.39
2018-12-22T18:36:02.001Z,1010.38
2018-12-22T18:40:57.803Z,1010.42
2018-12-22T18:45:54.082Z,1010.49
2018-12-22T18:50:49.925Z,1010.57
2018-12-22T18:55:45.919Z,1010.53
2018-12-22T19:00:41.559Z,1010.70
2018-12-22T19:05:38.391Z,1010.61
2018-12-22T19:10:33.794Z,1010.75
2018-12-22T19:15:29.526Z,1010.70
2018-12-22T19:20:25.591Z,1010.94
2018-12-22T19:25:20.968Z,1010.96
2018-12-22T19:30:18.031Z,1010.95
2018-12-22T19:35:14.047Z,1010.97
2018-12-22T19:40:09.773Z,1011.04
2018-12-22T19:45:06.894Z,1011.06
2018-12-22T19:50:02.321Z,1011.03
2018-12-22T19:54:58.802Z,1011.00
2018-12-22T19:59:55.485Z,1011.09
2018-12-22T20:04:50.871Z,1011.08
2018-12-22T20:09:47.871Z,1011.18
2018-12-22T20:14:43.598Z,1011.26
2018-12-22T20:19:38.881Z,1011.12
2018-12-22T20:24:34.510Z,1011.14
2018-12-22T20:29:30.473Z,1011.29
2018-12-22T20:34:26.245Z,1011.23
2018-12-22T20:39:21.986Z,1011.37
2018-12-22T20:44:19.508Z,1011.40
2018-12-22T20:49:15.912Z,1011.39
2018-12-22T20:54:11.361Z,1011.37
2018-12-22T20:59:07.056Z,1011.33
2018-12-22T21:04:02.670Z,1011.42
2018-12-22T21:08:58.421Z,1011.48
2018-12-22T21:13:54.109Z,1011.38
2018-12-22T21:18:49.767Z,1011.46
2018-12-22T21:23:45.960Z,1011.57
2018-12-22T21:28:41.462Z,1011.64
2018-12-22T21:33:37.263Z,1011.67
2018-12-22T21:38:33.128Z,1011.79
2018-12-22T21:43:29.868Z,1011.80
2018-12-22T21:48:25.124Z,1011.85
2018-12-22T21:53:21.524Z,1011.90
2018-12-22T21:58:17.966Z,1011.90
2018-12-22T22:03:14.481Z,1012.03
2018-12-22T22:08:11.014Z,1012.12
2018-12-22T22:13:06.525Z,1012.06
2018-12-22T22:18:02.366Z,1012.21
2018-12-22T22:22:59.074Z,1012.16
2018-12-22T22:27:54.525Z,1012.25
2018-12-22T22:32:50.304Z,1012.29
2018-12-22T22:37:46.940Z,1012.34
2018-12-22T22:42:43.884Z,1012.45
2018-12-22T22:47:39.647Z,1012.51
2018-12-22T22:52:35.310Z,1012.39
2018-12-22T22:57:31.331Z,1012.50
2018-12-22T23:02:27.115Z,1012.49
2018-12-22T23:07:22.544Z,1012.50
2018-12-22T23:12:18.391Z,1012.57
2018-12-22T23:17:13.934Z,1012.53
2018-12-22T23:22:10.903Z,1012.69
2018-12-22T23:27:06.414Z,1012.65
2018-12-22T23:32:02.170Z,1012.73
2018-12-22T23:36:58.899Z,1012.73
2018-12-22T23:41:54.457Z,1012.63
2018-12-22T23:46:50.237Z,1012.64
2018-12-22T23:51:45.854Z,1012.54
2018-12-22T23:56:41.630Z,1012.59
